Latest METARs, TAFs and NOTAMs for MGGT


---------------------------------------------------------------------------
	(OBSERVATIONS)
MGGT 190900Z 36012KT 9999 BKN012 17/15 Q1024 A3024=
MGGT 190800Z 36014KT 9999 SCT014 17/15 Q1025 A3027=
MGGT 190700Z 02010KT 9999 SCT014 18/15 Q1025 A3027=
---------------------------------------------------------------------------
	(TERMINAL AREA FORECAST)
MGGT 190500Z 1906/2006 03008KT 9999 BKN016 TX26/1920Z
    TN17/1912Z
    TEMPO 1908/1915 36012KT SCT014
    BECMG 1915/1917 03010KT SCT018 PROB40
    TEMPO 1920/2003 7000 TSRA SCT020TCU FEW025CB
    BECMG 2001/2003 36014KT SCT016=
---------------------------------------------------------------------------
	(NOTAMS)


MGGT A0047/18 THE FOLLOWING INT ARE COMPLETELY WITHDRAWN EXER
    CTN DUE TO MEN AND EQPT WORKING ON CLSD INT ACFT REQ ATC
    INSTRUCTIONS TWY E: INT F1, H, I TWY W: INT N. 11 JAN 04:00
    2018 UNTIL PERM. CREATED: 08 JAN 19:16 2018

MGGT A0393/18 RNAV X RWY 02 PROCEDURE NOT AVBL RNAV W RWY 02
    PROCEDURE NOT AVBL RNAV X RWY 20 PROCEDURE GT599 NOT AVBL.
    24 FEB 12:44 2018 UNTIL 24 MAY 23:59 2018. CREATED: 24 FEB
    12:45 2018

MGGT A0611/18 TWR FREQ 118.1MHZ OPR WITH PERSONNEL IN TRAINING.
    03 APR 00:45 2018 UNTIL 03 JUL 00:45 2018. CREATED: 03 APR
    00:44 2018

MGGT A0636/18 GUATEMALA AIRSPACE AFFECTED BY OBST (TORRE DEL
    REFORMADOR) COORD 143646.81N 0903059.75W WITHOUT LIGHTING
    TO 250 FT HEIGHT, ACFT EXER CTN. SFC - 250FT AGL, 04 APR
    20:00 2018 UNTIL 03 JUL 23:59 2018. CREATED: 04 APR 19:57
    2018

MGGT F0011/08 [DEFENSE ENERGY SUPPORT CENTER ADVISORY] FUEL AVAILABILITY
    LIMITED BEGINNING MAY 3, 2008 DAILY VOLUME WILL BE REDUCED
    FOR GOVERNMENT CONTRACT FUEL (SP0600-05-D-0003). CALL AHEAD
    TO ENURE FUEL AVAILABILITY. STAFF DUTY OFFICER #DSN 427-8420.
    05 AUG 01:17 2020 UNTIL 05 AUG 30:17 2020

MGGT F0014/08 [DEFENSE ENERGY SUPPORT CENTER ADVISORY] FUEL AVAILABILITY
    LIMITED QUANTITY UNTIL FURTHER NOTICE. PHONE AHEAD FOR FUEL
    AVAILABILITY. 05 AUG 08:12 2020 UNTIL 06 AUG 10:12 2020

MGGT F0044/11 [DEFENSE ENERGY SUPPORT CENTER ADVISORY] FUEL AVAILABILITY
    HOURS OF SERVICE ARE NEW FUELING HOURS FROM 09:00 AM TO 4:00
    PM. ALL FUELINGS OUTSIDE THIS SCHEDULE, WILL BE PROVIDED
    AT THE SOUTH INTERNATIONAL RAMP SO THAT ANY PERMISSION MUST
    BE OBTAINED FROM DGAC (DIRECCION GENERAL DE AERONAUTICA CIVIL),
    BY ALL CUSTOMERS IN CASE IT IS NECESSARY. DLA ENERGY DUTY
    OFFICER'S TELEPHONE NUMBER IS 703-767-8420, DSN 427-8420.
    06 NOV 14:14 2020 UNTIL 08 NOV 30:14 2020

---------------------------------------------------------------------------